ENTC/TOS METAR and TAF weather

Enter ICAO airport designator
Station Type Date Time Source
ENTC METAR 2022/06/29 00:20 UTC NOAA

ENTC 290020Z 00000KT CAVOK 21/15 Q1017 RMK WIND 2600FT 17018KT


Station Type Date Time Source
ENTC Decoded METAR 2022/06/29 00:20 UTC NOAA

Tromso / Langnes, Norway (ENTC) 69-41N 018-55E 10M
Jun 28, 2022 - 08:20 PM EDT / 2022.06.29 0020 UTC
Wind: Calm:0
Visibility: greater than 7 mile(s):0
Temperature: 69 F (21 C)
Dew Point: 59 F (15 C)
Relative Humidity: 68%
Pressure (altimeter): 30.03 in. Hg (1017 hPa)
ob: ENTC 290020Z 00000KT CAVOK 21/15 Q1017 RMK WIND 2600FT 17018KT
cycle: 0

Station Type Date Time Source
ENTC TAF 2022/06/28 18:57 UTC NOAA

TAF ENTC 281700Z 2818/2918 VRB05KT CAVOK
TEMPO 2912/2918 24012KT SHRA BKN012 SCT040CB PROB30
TEMPO 2912/2916 TS

Example: see airport list